Time;durP1;ratioP1;P1;durP2;ratioP2;P2;SDS_P1;SDS_P2;PMS_P1;PMS_P2;Temp;Humidity;BMP_temperature;BMP_pressure;BME280_temperature;BME280_humidity;BME280_pressure;Samples;Min_cycle;Max_cycle;Signal;HPM_P1;HPM_P2
2022/09/27 00:02:24;;;;;;;4.77;4.27;;;11.60;99.90;;;;;;5062405;28;20456;-76
2022/09/27 00:04:51;;;;;;;6.43;4.20;;;11.60;99.90;;;;;;5063095;28;20944;-76
2022/09/27 00:07:18;;;;;;;5.00;4.60;;;11.70;99.90;;;;;;5062155;28;20562;-76
2022/09/27 00:09:45;;;;;;;4.43;3.93;;;11.70;99.90;;;;;;5060613;28;21089;-76
2022/09/27 00:12:12;;;;;;;5.30;3.97;;;11.70;99.90;;;;;;5060774;28;20585;-76
2022/09/27 00:14:39;;;;;;;6.50;4.70;;;11.70;99.90;;;;;;5062942;28;20468;-76
2022/09/27 00:17:09;;;;;;;3.60;3.30;;;11.60;99.90;;;;;;5058406;28;20471;-76
2022/09/27 00:19:36;;;;;;;4.80;4.40;;;11.70;99.90;;;;;;5063358;28;20451;-76
2022/09/27 00:22:03;;;;;;;5.60;4.53;;;11.60;99.90;;;;;;5061467;28;20463;-76
2022/09/27 00:24:30;;;;;;;6.40;5.17;;;11.60;99.90;;;;;;5063400;28;20463;-76
2022/09/27 00:26:58;;;;;;;4.80;4.33;;;11.60;99.90;;;;;;5057996;28;20637;-76
2022/09/27 00:29:25;;;;;;;4.33;3.90;;;11.50;99.90;;;;;;5062826;28;20444;-76
2022/09/27 00:31:52;;;;;;;12.63;5.13;;;11.50;99.90;;;;;;5062583;28;20832;-76
2022/09/27 00:34:23;;;;;;;5.10;4.43;;;11.40;99.90;;;;;;5059862;28;20471;-76
2022/09/27 00:36:52;;;;;;;4.53;3.83;;;11.40;99.90;;;;;;5064638;28;20459;-76
2022/09/27 00:39:19;;;;;;;4.37;3.90;;;11.40;99.90;;;;;;5066766;28;20443;-76
2022/09/27 00:41:46;;;;;;;2.90;2.70;;;11.30;99.90;;;;;;5066273;28;20463;-76
2022/09/27 00:44:56;;;;;;;4.27;3.60;;;11.30;99.90;;;;;;5063974;28;20467;-76
2022/09/27 00:47:27;;;;;;;4.73;4.23;;;11.30;99.90;;;;;;5055126;28;20510;-76
2022/09/27 00:50:01;;;;;;;4.03;2.60;;;11.20;99.90;;;;;;5064287;28;20476;-76
2022/09/27 00:52:34;;;;;;;2.60;2.33;;;11.30;99.90;;;;;;5063448;28;20455;-76
2022/09/27 00:55:06;;;;;;;2.60;2.40;;;11.30;99.90;;;;;;5065235;28;20459;-76
2022/09/27 00:57:34;;;;;;;1.93;1.53;;;11.30;99.90;;;;;;5065904;28;20456;-76
2022/09/27 01:00:05;;;;;;;3.50;2.83;;;11.40;99.90;;;;;;5064198;28;20444;-76
2022/09/27 01:02:35;;;;;;;3.43;2.43;;;11.30;99.90;;;;;;5063721;28;21000;-76
2022/09/27 01:05:05;;;;;;;3.13;2.67;;;11.30;99.90;;;;;;5062896;28;20455;-76
2022/09/27 01:07:32;;;;;;;3.40;3.03;;;11.30;99.90;;;;;;5067186;28;20454;-76
2022/09/27 01:09:59;;;;;;;3.03;2.70;;;11.30;99.90;;;;;;5065415;28;20455;-76
2022/09/27 01:12:37;;;;;;;2.97;2.73;;;11.40;99.90;;;;;;5062227;28;20456;-76
2022/09/27 01:15:14;;;;;;;1.83;1.73;;;11.50;99.90;;;;;;5065403;28;20458;-76
2022/09/27 01:17:50;;;;;;;3.17;2.97;;;11.40;99.90;;;;;;5062680;28;20474;-76
2022/09/27 01:20:55;;;;;;;3.00;2.20;;;11.50;99.90;;;;;;5064798;28;20471;-76
2022/09/27 01:23:51;;;;;;;3.33;3.07;;;11.40;99.90;;;;;;5046789;28;20601;-76
2022/09/27 01:26:33;;;;;;;2.17;1.97;;;11.30;99.90;;;;;;5044564;28;20578;-77
2022/09/27 01:29:07;;;;;;;3.17;2.97;;;11.30;99.90;;;;;;5063954;28;20462;-76
2022/09/27 01:31:43;;;;;;;5.30;2.93;;;11.50;99.90;;;;;;5064867;28;20479;-76
2022/09/27 01:34:19;;;;;;;2.20;2.00;;;11.50;99.90;;;;;;5060958;28;20469;-76
2022/09/27 01:36:56;;;;;;;5.73;3.17;;;11.40;99.90;;;;;;5066819;28;20844;-76
2022/09/27 01:39:35;;;;;;;2.40;2.20;;;11.40;99.90;;;;;;5062764;28;20451;-76
2022/09/27 01:42:08;;;;;;;2.20;2.00;;;11.40;99.90;;;;;;5060041;28;20525;-76
2022/09/27 01:44:41;;;;;;;2.77;2.50;;;11.30;99.90;;;;;;5065773;28;20447;-76
2022/09/27 01:47:14;;;;;;;4.70;3.10;;;11.30;99.90;;;;;;5061482;28;20455;-76
2022/09/27 01:49:48;;;;;;;4.50;2.90;;;11.30;99.90;;;;;;5062529;28;20463;-76
2022/09/27 01:52:20;;;;;;;3.83;2.50;;;11.20;99.90;;;;;;5061116;28;20502;-76
2022/09/27 01:54:51;;;;;;;3.63;2.17;;;11.20;99.90;;;;;;5064000;28;20546;-76
2022/09/27 01:57:23;;;;;;;3.90;3.60;;;11.20;99.90;;;;;;5063734;28;20450;-76
2022/09/27 01:59:53;;;;;;;3.20;2.10;;;11.10;99.90;;;;;;5064265;28;20444;-76
2022/09/27 02:02:24;;;;;;;2.40;2.20;;;11.10;99.90;;;;;;5060298;28;20476;-76
2022/09/27 02:04:54;;;;;;;3.70;2.90;;;11.20;99.90;;;;;;5065538;28;20487;-76
2022/09/27 02:07:27;;;;;;;2.30;1.83;;;11.10;99.90;;;;;;5065964;28;20929;-76
2022/09/27 02:09:58;;;;;;;1.77;1.60;;;11.10;99.90;;;;;;5063511;28;20554;-76
2022/09/27 02:12:31;;;;;;;2.23;2.07;;;11.10;99.90;;;;;;5063090;28;20491;-76
2022/09/27 02:15:03;;;;;;;2.40;2.10;;;11.10;99.90;;;;;;5064495;28;20483;-76
2022/09/27 02:17:41;;;;;;;2.63;2.17;;;11.20;99.90;;;;;;5063081;28;20474;-76
2022/09/27 02:20:15;;;;;;;2.00;1.70;;;11.10;99.90;;;;;;5061535;28;20447;-76
2022/09/27 02:22:47;;;;;;;2.00;1.90;;;11.10;99.90;;;;;;5063268;28;20479;-76
2022/09/27 02:25:21;;;;;;;3.73;2.30;;;11.10;99.90;;;;;;5063466;28;20454;-76
2022/09/27 02:27:57;;;;;;;2.13;2.03;;;11.00;99.90;;;;;;5064289;28;20483;-76
2022/09/27 02:30:25;;;;;;;2.13;1.93;;;11.10;99.90;;;;;;5065039;28;21121;-76
2022/09/27 02:32:54;;;;;;;1.90;1.80;;;11.00;99.90;;;;;;5064948;28;20460;-76
2022/09/27 02:35:25;;;;;;;1.40;1.30;;;11.10;99.90;;;;;;5060995;28;20455;-76
2022/09/27 02:37:53;;;;;;;1.90;1.80;;;11.10;99.90;;;;;;5065315;28;20466;-76
2022/09/27 02:40:20;;;;;;;2.10;1.90;;;11.10;99.90;;;;;;5059120;28;20517;-75
2022/09/27 02:42:48;;;;;;;1.40;1.30;;;11.10;99.90;;;;;;5065199;28;20444;-75
2022/09/27 02:45:17;;;;;;;1.40;1.30;;;11.10;99.90;;;;;;5063736;28;20476;-75
2022/09/27 02:48:02;;;;;;;1.80;1.57;;;11.10;99.90;;;;;;5060302;28;20470;-75
2022/09/27 02:50:44;;;;;;;2.13;1.20;;;11.10;99.90;;;;;;5060659;28;20456;-75
2022/09/27 02:53:21;;;;;;;2.17;1.97;;;11.10;99.90;;;;;;5060430;28;20447;-75
2022/09/27 02:55:57;;;;;;;2.40;1.77;;;11.00;99.90;;;;;;5061405;28;20494;-75
2022/09/27 02:58:37;;;;;;;4.40;2.10;;;11.00;99.90;;;;;;5058295;28;20950;-75
2022/09/27 03:01:12;;;;;;;1.70;1.40;;;11.00;99.90;;;;;;5060280;28;20459;-75
2022/09/27 03:03:49;;;;;;;2.20;1.67;;;11.00;99.90;;;;;;5064141;28;20459;-75
2022/09/27 03:06:20;;;;;;;1.23;1.10;;;11.00;99.90;;;;;;5064536;28;20473;-75
2022/09/27 03:08:47;;;;;;;3.37;1.23;;;11.00;99.90;;;;;;5064711;28;20935;-75
2022/09/27 03:11:14;;;;;;;2.27;2.03;;;10.90;99.90;;;;;;5060078;28;20986;-75
2022/09/27 03:13:42;;;;;;;1.60;1.50;;;10.90;99.90;;;;;;5063849;28;20458;-75
2022/09/27 03:16:09;;;;;;;3.10;1.53;;;10.90;99.90;;;;;;5058305;28;20466;-75
2022/09/27 03:18:36;;;;;;;1.80;1.47;;;11.00;99.90;;;;;;5063536;28;20451;-75
2022/09/27 03:21:05;;;;;;;1.77;1.53;;;11.00;99.90;;;;;;5060899;28;20460;-75
2022/09/27 03:23:32;;;;;;;1.50;1.40;;;11.00;99.90;;;;;;5064943;28;20451;-75
2022/09/27 03:25:59;;;;;;;1.53;1.30;;;10.90;99.90;;;;;;5062107;28;21104;-75
2022/09/27 03:28:28;;;;;;;1.77;1.50;;;10.90;99.90;;;;;;5064272;28;20455;-75
2022/09/27 03:30:56;;;;;;;1.90;1.80;;;10.80;99.90;;;;;;5060111;28;20540;-75
2022/09/27 03:33:23;;;;;;;2.03;1.40;;;10.80;99.90;;;;;;5059806;28;20448;-75
2022/09/27 03:35:50;;;;;;;1.33;1.20;;;10.80;99.90;;;;;;5063089;28;20490;-75
2022/09/27 03:38:18;;;;;;;1.80;1.13;;;10.80;99.90;;;;;;5058528;28;20528;-75
2022/09/27 03:40:45;;;;;;;1.60;1.50;;;10.80;99.90;;;;;;5064741;28;20807;-75
2022/09/27 03:43:13;;;;;;;1.50;1.40;;;10.80;99.90;;;;;;5061900;28;20471;-75
2022/09/27 03:45:40;;;;;;;2.87;1.50;;;10.80;99.90;;;;;;5061766;28;20468;-75
2022/09/27 03:48:07;;;;;;;1.00;1.00;;;10.80;99.90;;;;;;5059422;28;20541;-75
2022/09/27 03:50:34;;;;;;;3.37;1.90;;;10.80;99.90;;;;;;5062448;28;20849;-75
2022/09/27 03:53:01;;;;;;;1.53;1.43;;;10.80;99.90;;;;;;5060599;28;20479;-75
2022/09/27 03:55:29;;;;;;;1.40;1.30;;;10.70;99.90;;;;;;5063986;28;20452;-75
2022/09/27 03:57:56;;;;;;;1.90;1.60;;;10.80;99.90;;;;;;5060310;28;20932;-75
2022/09/27 04:00:24;;;;;;;1.73;1.63;;;10.80;99.90;;;;;;5058027;28;20940;-75
2022/09/27 04:02:52;;;;;;;2.47;2.17;;;10.80;99.90;;;;;;5061069;28;20491;-75
2022/09/27 04:05:19;;;;;;;4.07;3.27;;;10.80;99.90;;;;;;5061722;28;20467;-75
2022/09/27 04:07:48;;;;;;;5.63;5.13;;;10.80;99.90;;;;;;5058687;28;20471;-75
2022/09/27 04:10:15;;;;;;;4.10;3.80;;;10.80;99.90;;;;;;5061015;28;20470;-75
2022/09/27 04:12:44;;;;;;;4.37;3.93;;;10.80;99.90;;;;;;5064240;28;20484;-75
2022/09/27 04:15:12;;;;;;;6.03;5.43;;;10.80;99.90;;;;;;5065562;28;20474;-75
2022/09/27 04:17:41;;;;;;;5.50;5.00;;;10.80;99.90;;;;;;5066937;28;20454;-75
2022/09/27 04:20:09;;;;;;;5.90;5.40;;;10.70;99.90;;;;;;5064305;28;20459;-75
2022/09/27 04:22:39;;;;;;;4.17;3.87;;;10.80;99.90;;;;;;5064446;28;20459;-75
2022/09/27 04:25:08;;;;;;;4.07;3.70;;;10.70;99.90;;;;;;5064873;28;20444;-75
2022/09/27 04:27:35;;;;;;;5.10;4.33;;;10.70;99.90;;;;;;5062454;28;20490;-76
2022/09/27 04:30:05;;;;;;;4.87;4.50;;;10.70;99.90;;;;;;5059930;28;20472;-75
2022/09/27 04:32:32;;;;;;;7.50;5.60;;;10.70;99.90;;;;;;5067276;28;21101;-75
2022/09/27 04:37:44;;;;;;;7.80;7.20;;;10.70;99.90;;;;;;5065044;28;20459;-75
2022/09/27 04:40:11;;;;;;;7.83;7.10;;;10.70;99.90;;;;;;5065508;28;20480;-75
2022/09/27 04:42:38;;;;;;;7.47;6.80;;;10.70;99.90;;;;;;5065626;28;20463;-75
2022/09/27 04:45:08;;;;;;;6.60;6.03;;;10.80;99.90;;;;;;5059732;28;20470;-76
2022/09/27 04:47:35;;;;;;;7.10;5.73;;;10.80;99.90;;;;;;5064409;28;20801;-75
2022/09/27 04:50:02;;;;;;;8.07;7.27;;;10.70;99.90;;;;;;5065368;28;20459;-75
2022/09/27 04:52:30;;;;;;;8.03;6.50;;;10.70;99.90;;;;;;5064175;28;20896;-75
2022/09/27 04:54:57;;;;;;;8.30;7.60;;;10.70;99.90;;;;;;5065456;28;20462;-76
2022/09/27 04:57:24;;;;;;;8.03;7.43;;;10.60;99.90;;;;;;5062620;28;20470;-75
2022/09/27 04:59:52;;;;;;;8.77;7.87;;;10.60;99.90;;;;;;5060128;28;20463;-75
2022/09/27 05:02:20;;;;;;;7.40;6.70;;;10.60;99.90;;;;;;5065354;28;20893;-75
2022/09/27 05:04:47;;;;;;;8.23;7.50;;;10.60;99.90;;;;;;5070489;28;20455;-75
2022/09/27 05:07:14;;;;;;;8.83;7.77;;;10.60;99.90;;;;;;5064563;28;20462;-75
2022/09/27 05:09:41;;;;;;;8.20;7.30;;;10.60;99.90;;;;;;5065856;28;20474;-75
2022/09/27 05:12:08;;;;;;;10.43;8.13;;;10.60;99.90;;;;;;5064418;28;20479;-75
2022/09/27 05:14:36;;;;;;;8.00;7.20;;;10.60;99.90;;;;;;5067119;28;20447;-75
2022/09/27 05:17:03;;;;;;;9.83;8.90;;;10.70;99.90;;;;;;5063975;28;20558;-76
2022/09/27 05:19:32;;;;;;;10.17;8.13;;;10.70;99.90;;;;;;5065723;28;20957;-75
2022/09/27 05:21:59;;;;;;;8.43;7.70;;;10.70;99.90;;;;;;5062905;28;20455;-75
2022/09/27 05:24:27;;;;;;;8.23;7.50;;;10.70;99.90;;;;;;5065017;28;20448;-75
2022/09/27 05:26:54;;;;;;;8.70;7.93;;;10.70;99.90;;;;;;5061808;28;20522;-75
2022/09/27 05:29:21;;;;;;;8.80;8.00;;;10.70;99.90;;;;;;5061490;28;20464;-75
2022/09/27 05:31:48;;;;;;;26.10;11.17;;;10.70;99.90;;;;;;5058513;28;20481;-75
2022/09/27 05:34:16;;;;;;;14.30;9.40;;;10.70;99.90;;;;;;5062937;28;20499;-75
2022/09/27 05:36:47;;;;;;;14.90;10.20;;;10.60;99.90;;;;;;5063082;28;20452;-75
2022/09/27 05:39:15;;;;;;;10.80;9.67;;;10.60;99.90;;;;;;5061737;28;20905;-75
2022/09/27 05:41:42;;;;;;;14.03;10.13;;;10.60;99.90;;;;;;5056433;28;20472;-75
2022/09/27 05:44:09;;;;;;;28.43;12.20;;;10.60;99.90;;;;;;5063457;28;20451;-75
2022/09/27 05:46:37;;;;;;;35.23;13.97;;;10.60;99.90;;;;;;5061583;28;21533;-75
2022/09/27 05:49:05;;;;;;;55.83;18.53;;;10.60;99.90;;;;;;5065044;28;20590;-76
2022/09/27 05:51:32;;;;;;;33.30;16.60;;;10.50;99.90;;;;;;5065466;28;20471;-75
2022/09/27 05:54:01;;;;;;;19.13;15.90;;;10.60;99.90;;;;;;5059359;28;20460;-75
2022/09/27 05:56:28;;;;;;;18.40;15.17;;;10.60;99.90;;;;;;5061344;28;20455;-74
2022/09/27 05:58:55;;;;;;;14.93;12.70;;;10.60;99.90;;;;;;5064395;28;20474;-74
2022/09/27 06:01:25;;;;;;;18.97;15.23;;;10.60;99.90;;;;;;5066907;28;20463;-74
2022/09/27 06:03:52;;;;;;;20.93;15.67;;;10.60;99.90;;;;;;5065103;28;20533;-74
2022/09/27 06:06:19;;;;;;;21.10;17.47;;;10.60;99.90;;;;;;5063348;28;20854;-74
2022/09/27 06:08:47;;;;;;;27.43;17.07;;;10.50;99.90;;;;;;5061421;28;20536;-75
2022/09/27 06:11:15;;;;;;;18.43;16.23;;;10.50;99.90;;;;;;5063226;28;20548;-75
2022/09/27 06:13:42;;;;;;;22.33;17.63;;;10.60;99.90;;;;;;5061133;28;20522;-75
2022/09/27 06:16:11;;;;;;;18.77;16.67;;;10.60;99.90;;;;;;5062007;28;20816;-75
2022/09/27 06:18:38;;;;;;;22.10;18.70;;;10.60;99.90;;;;;;5057744;28;20463;-75
2022/09/27 06:21:06;;;;;;;21.77;17.70;;;10.70;99.90;;;;;;5057804;28;20955;-75
2022/09/27 06:23:33;;;;;;;23.20;16.80;;;10.60;99.90;;;;;;5052898;28;20467;-75
2022/09/27 06:26:03;;;;;;;18.47;16.47;;;10.60;99.90;;;;;;5057619;28;20518;-75
2022/09/27 06:28:33;;;;;;;21.63;16.40;;;10.70;99.90;;;;;;5062368;28;20684;-75
2022/09/27 06:31:00;;;;;;;17.50;14.70;;;10.70;99.90;;;;;;5047669;28;20488;-76
2022/09/27 06:33:28;;;;;;;19.20;17.13;;;10.70;99.90;;;;;;5047799;28;20494;-77
2022/09/27 06:35:55;;;;;;;21.63;16.53;;;10.70;99.90;;;;;;5056606;28;20546;-76
2022/09/27 06:38:23;;;;;;;18.67;16.30;;;10.80;99.90;;;;;;5060257;28;20451;-76
2022/09/27 06:40:50;;;;;;;24.07;19.90;;;10.70;99.90;;;;;;5052555;28;20550;-76
2022/09/27 06:43:19;;;;;;;20.67;15.77;;;10.80;99.90;;;;;;5049894;28;20464;-76
2022/09/27 06:45:49;;;;;;;19.97;17.57;;;10.80;99.90;;;;;;5062250;28;20495;-76
2022/09/27 06:48:16;;;;;;;19.00;15.60;;;10.80;99.90;;;;;;5057968;28;20550;-76
2022/09/27 06:50:45;;;;;;;18.43;16.63;;;10.80;99.90;;;;;;5065358;28;20479;-77
2022/09/27 06:53:13;;;;;;;26.10;23.30;;;10.80;99.90;;;;;;5056252;28;20487;-76
2022/09/27 06:55:41;;;;;;;15.10;11.10;;;10.80;99.90;;;;;;5061040;28;20450;-76
2022/09/27 07:00:57;;;;;;;46.33;42.23;;;10.50;99.90;;;;;;5063655;28;20458;-76
2022/09/27 07:03:30;;;;;;;14.80;13.50;;;10.50;99.90;;;;;;5060019;28;20492;-76
2022/09/27 07:05:59;;;;;;;17.23;15.53;;;10.50;99.90;;;;;;5064074;28;20666;-76
2022/09/27 07:08:27;;;;;;;10.30;9.37;;;10.50;99.90;;;;;;5053938;28;20495;-76
2022/09/27 07:10:55;;;;;;;9.27;8.33;;;10.50;99.90;;;;;;5058912;28;20474;-76
2022/09/27 07:13:23;;;;;;;9.03;8.23;;;10.50;99.90;;;;;;5059646;28;20570;-76
2022/09/27 07:15:50;;;;;;;8.93;8.10;;;10.50;99.90;;;;;;5062607;28;20487;-76
2022/09/27 07:18:19;;;;;;;117.20;49.27;;;10.60;99.90;;;;;;5059010;28;20760;-76
2022/09/27 07:20:46;;;;;;;31.60;16.90;;;10.60;99.90;;;;;;5062046;28;20455;-76
2022/09/27 07:23:14;;;;;;;48.50;18.50;;;10.80;99.90;;;;;;5053799;28;20798;-76
2022/09/27 07:25:42;;;;;;;65.13;27.30;;;10.90;99.90;;;;;;5062253;28;20997;-76
2022/09/27 07:28:19;;;;;;;15.40;9.50;;;10.80;99.90;;;;;;5057174;28;20495;-76
2022/09/27 07:30:46;;;;;;;11.40;6.90;;;10.90;99.90;;;;;;5062168;28;20471;-76
2022/09/27 07:33:15;;;;;;;6.50;4.90;;;11.00;99.90;;;;;;5056476;28;20472;-76
2022/09/27 07:35:43;;;;;;;5.77;4.80;;;10.90;99.90;;;;;;5061897;28;20475;-76
2022/09/27 07:38:12;;;;;;;4.23;3.50;;;10.80;99.90;;;;;;5058910;28;20495;-76
2022/09/27 07:40:40;;;;;;;5.90;3.73;;;10.80;99.90;;;;;;5061575;28;20522;-76
2022/09/27 07:43:08;;;;;;;6.33;3.23;;;10.80;99.90;;;;;;5060838;28;20933;-76
2022/09/27 07:45:36;;;;;;;2.80;2.60;;;10.70;99.90;;;;;;5058629;28;20551;-76
2022/09/27 07:48:05;;;;;;;2.30;2.20;;;10.70;99.90;;;;;;5060094;28;20467;-76
2022/09/27 07:50:32;;;;;;;2.97;2.37;;;10.50;99.90;;;;;;5061145;28;20495;-76
2022/09/27 07:53:01;;;;;;;3.33;2.20;;;10.50;99.90;;;;;;5062792;28;20495;-76
2022/09/27 07:55:28;;;;;;;2.23;2.10;;;10.50;99.90;;;;;;5055207;28;20927;-77
2022/09/27 07:58:02;;;;;;;2.87;1.90;;;10.60;99.90;;;;;;5065303;28;20470;-77
2022/09/27 08:00:30;;;;;;;2.20;1.80;;;10.70;99.90;;;;;;5055604;28;20450;-77
2022/09/27 08:02:57;;;;;;;3.60;1.90;;;10.90;99.90;;;;;;5060150;28;20491;-77
2022/09/27 08:05:24;;;;;;;6.00;1.73;;;11.00;99.90;;;;;;5060690;28;20478;-77
2022/09/27 08:07:55;;;;;;;1.47;1.37;;;11.00;99.90;;;;;;5060317;28;20469;-77
2022/09/27 08:10:26;;;;;;;2.23;2.03;;;11.10;99.90;;;;;;5058637;28;20487;-77
2022/09/27 08:12:53;;;;;;;2.20;1.83;;;11.10;99.90;;;;;;5057962;28;20515;-77
2022/09/27 08:15:20;;;;;;;1.00;1.00;;;11.20;99.90;;;;;;5054058;28;20558;-77
2022/09/27 08:17:47;;;;;;;3.03;1.10;;;11.20;99.90;;;;;;5058202;28;20444;-76
2022/09/27 08:20:14;;;;;;;2.10;1.37;;;11.20;99.90;;;;;;5058147;28;20472;-77
2022/09/27 08:22:42;;;;;;;1.40;1.30;;;11.30;99.90;;;;;;5062062;28;20895;-77
2022/09/27 08:25:10;;;;;;;1.30;1.10;;;11.20;99.90;;;;;;5062374;28;20455;-76
2022/09/27 08:27:38;;;;;;;1.13;0.80;;;11.10;99.90;;;;;;5061742;28;20463;-76
2022/09/27 08:30:06;;;;;;;1.00;0.90;;;11.30;99.90;;;;;;5063342;28;20810;-76
2022/09/27 08:32:33;;;;;;;0.90;0.90;;;11.20;99.90;;;;;;5055657;28;20546;-76
2022/09/27 08:35:00;;;;;;;0.63;0.57;;;11.30;99.90;;;;;;5063298;28;20448;-76
2022/09/27 08:37:27;;;;;;;0.80;0.70;;;11.50;99.90;;;;;;5060932;28;20448;-76
2022/09/27 08:39:54;;;;;;;0.90;0.80;;;11.70;99.90;;;;;;5063769;28;20456;-76
2022/09/27 08:42:33;;;;;;;1.10;1.10;;;11.60;99.90;;;;;;5057602;28;20462;-77
2022/09/27 08:45:08;;;;;;;0.80;0.70;;;11.90;99.90;;;;;;5059679;28;20565;-76
2022/09/27 08:47:38;;;;;;;1.37;0.83;;;11.80;99.90;;;;;;5057440;28;21156;-76
2022/09/27 08:50:18;;;;;;;0.70;0.70;;;12.10;99.90;;;;;;5060058;28;21399;-76
2022/09/27 08:52:52;;;;;;;1.03;0.60;;;12.30;99.90;;;;;;5055023;28;20531;-76
2022/09/27 08:55:25;;;;;;;0.67;0.60;;;12.40;99.90;;;;;;5058075;28;20545;-77
2022/09/27 08:57:56;;;;;;;0.80;0.70;;;12.50;99.90;;;;;;5060941;28;20455;-76
2022/09/27 09:00:25;;;;;;;0.70;0.50;;;12.40;99.90;;;;;;5059243;28;20455;-76
2022/09/27 09:02:52;;;;;;;1.20;0.63;;;12.40;99.90;;;;;;5051965;28;20448;-77
2022/09/27 09:05:28;;;;;;;1.33;0.60;;;12.50;99.90;;;;;;5058201;28;20459;-77
2022/09/27 09:08:05;;;;;;;0.90;0.60;;;12.50;99.90;;;;;;5054808;28;20463;-77
2022/09/27 09:13:47;;;;;;;0.50;0.43;;;12.40;99.90;;;;;;5065152;28;21072;-76
2022/09/27 09:16:27;;;;;;;0.87;0.40;;;12.40;99.90;;;;;;5057215;28;21195;-78
2022/09/27 09:19:09;;;;;;;0.60;0.40;;;12.50;99.90;;;;;;5055954;28;20490;-76
2022/09/27 09:21:46;;;;;;;0.50;0.50;;;12.40;99.90;;;;;;5057413;28;20997;-76
2022/09/27 09:24:33;;;;;;;0.60;0.50;;;12.60;99.90;;;;;;5065080;28;20459;-76
2022/09/27 09:27:05;;;;;;;0.63;0.40;;;12.60;99.90;;;;;;5057783;28;20487;-76
2022/09/27 09:29:52;;;;;;;0.40;0.40;;;12.60;99.90;;;;;;5064137;28;20451;-76
2022/09/27 09:32:29;;;;;;;0.50;0.40;;;12.90;99.90;;;;;;5062455;28;20923;-76
2022/09/27 09:35:00;;;;;;;0.40;0.30;;;12.80;99.90;;;;;;5059538;28;20519;-76
2022/09/27 09:37:36;;;;;;;0.50;0.40;;;12.70;99.90;;;;;;5059924;28;20814;-76
2022/09/27 09:40:14;;;;;;;0.60;0.40;;;12.70;99.90;;;;;;5062333;28;20463;-76
2022/09/27 09:42:46;;;;;;;0.60;0.50;;;12.90;99.90;;;;;;5061715;28;20524;-77
2022/09/27 09:45:19;;;;;;;0.40;0.40;;;13.00;99.90;;;;;;5058402;28;20939;-76
2022/09/27 09:47:54;;;;;;;0.50;0.30;;;12.90;99.90;;;;;;5059394;28;20926;-76
2022/09/27 09:50:26;;;;;;;0.50;0.30;;;12.90;99.90;;;;;;5058094;28;20454;-77
2022/09/27 09:52:59;;;;;;;0.60;0.40;;;13.10;99.90;;;;;;5057695;28;20902;-76
2022/09/27 09:55:30;;;;;;;0.47;0.33;;;13.00;99.90;;;;;;5061381;28;20519;-76
2022/09/27 09:58:05;;;;;;;1.67;0.50;;;13.10;99.90;;;;;;5060785;28;20966;-76
2022/09/27 10:00:32;;;;;;;0.70;0.43;;;13.30;99.90;;;;;;5057722;28;20474;-76
2022/09/27 10:03:01;;;;;;;1.17;0.50;;;13.30;99.90;;;;;;5066033;28;20467;-76
2022/09/27 10:05:29;;;;;;;0.70;0.40;;;13.50;99.90;;;;;;5061531;28;20467;-77
2022/09/27 10:07:59;;;;;;;0.50;0.40;;;13.30;99.90;;;;;;5063210;28;20506;-76
2022/09/27 10:10:27;;;;;;;0.50;0.50;;;13.20;99.90;;;;;;5063485;28;20455;-77
2022/09/27 10:12:54;;;;;;;0.50;0.30;;;13.00;99.90;;;;;;5055838;28;20472;-76
2022/09/27 10:15:24;;;;;;;1.63;0.40;;;12.70;99.90;;;;;;5058942;28;20468;-76
2022/09/27 10:17:53;;;;;;;0.60;0.40;;;12.90;99.90;;;;;;5065789;28;21053;-76
2022/09/27 10:20:32;;;;;;;0.97;0.37;;;12.90;99.90;;;;;;5064492;28;20904;-76
2022/09/27 10:23:05;;;;;;;0.50;0.30;;;13.00;99.90;;;;;;5058143;28;20457;-76
2022/09/27 10:25:52;;;;;;;0.83;0.70;;;13.00;99.90;;;;;;5059873;28;20490;-76
2022/09/27 10:28:37;;;;;;;1.60;0.40;;;13.00;99.90;;;;;;5056274;28;20487;-75
2022/09/27 10:31:05;;;;;;;1.37;0.40;;;13.10;99.90;;;;;;5061640;28;20468;-76
2022/09/27 10:33:34;;;;;;;0.57;0.30;;;13.30;99.90;;;;;;5059816;28;20480;-76
2022/09/27 10:36:03;;;;;;;0.50;0.50;;;13.50;99.90;;;;;;5061693;28;20467;-76
2022/09/27 10:38:32;;;;;;;0.70;0.40;;;13.70;99.90;;;;;;5061777;28;20498;-76
2022/09/27 10:41:17;;;;;;;1.90;0.47;;;14.10;99.90;;;;;;5062571;28;20465;-77
2022/09/27 10:43:44;;;;;;;1.17;0.40;;;14.20;99.90;;;;;;5056405;28;20503;-78
2022/09/27 10:46:21;;;;;;;0.97;0.40;;;14.10;99.90;;;;;;5063583;28;20545;-78
2022/09/27 10:48:50;;;;;;;0.80;0.50;;;14.00;99.90;;;;;;5062951;28;20468;-76
2022/09/27 10:51:29;;;;;;;0.40;0.40;;;13.90;99.90;;;;;;5062105;28;20559;-76
2022/09/27 10:53:59;;;;;;;0.40;0.40;;;13.90;99.90;;;;;;5063762;28;20506;-76
2022/09/27 10:56:29;;;;;;;0.50;0.50;;;13.90;99.90;;;;;;5057806;28;21049;-76
2022/09/27 10:58:58;;;;;;;1.07;0.40;;;14.00;99.90;;;;;;5062129;28;20468;-78
2022/09/27 11:01:25;;;;;;;1.00;0.40;;;14.00;99.90;;;;;;5058964;28;20471;-78
2022/09/27 11:03:56;;;;;;;3.70;0.50;;;14.00;99.90;;;;;;5055526;28;21180;-77
2022/09/27 11:06:32;;;;;;;1.57;0.57;;;13.80;99.90;;;;;;5059856;28;20455;-76
2022/09/27 11:09:17;;;;;;;1.07;0.40;;;13.90;99.90;;;;;;5062025;28;20527;-76
2022/09/27 11:11:45;;;;;;;0.80;0.40;;;14.00;99.90;;;;;;5060708;28;20466;-78
2022/09/27 11:14:22;;;;;;;0.70;0.43;;;14.20;99.90;;;;;;5064603;28;20573;-76
2022/09/27 11:17:04;;;;;;;0.60;0.40;;;14.10;99.90;;;;;;5064856;28;20468;-76
2022/09/27 11:20:01;;;;;;;1.43;0.30;;;14.00;99.90;;;;;;5062166;28;20444;-76
2022/09/27 11:22:56;;;;;;;0.67;0.37;;;13.80;99.90;;;;;;5045260;28;20513;-76
2022/09/27 11:25:35;;;;;;;1.17;0.40;;;13.60;99.90;;;;;;5048396;28;20527;-75
2022/09/27 11:28:12;;;;;;;2.30;0.47;;;12.80;99.90;;;;;;5058810;28;20553;-76
2022/09/27 11:30:51;;;;;;;0.70;0.30;;;11.00;99.90;;;;;;5062452;28;20448;-76
2022/09/27 11:33:45;;;;;;;0.43;0.30;;;10.50;99.90;;;;;;5055291;28;20932;-76
2022/09/27 11:36:21;;;;;;;0.40;0.20;;;10.40;99.90;;;;;;5053274;28;20468;-76
2022/09/27 11:39:02;;;;;;;1.00;0.20;;;10.20;99.90;;;;;;5052842;28;20463;-76
2022/09/27 11:41:51;;;;;;;0.40;0.30;;;10.30;99.90;;;;;;5047525;28;20472;-78
2022/09/27 11:44:44;;;;;;;1.13;0.30;;;10.50;99.90;;;;;;5037441;28;20466;-75
2022/09/27 11:47:19;;;;;;;0.40;0.20;;;10.60;99.90;;;;;;5055071;28;20468;-74
2022/09/27 11:50:21;;;;;;;0.83;0.60;;;10.80;99.90;;;;;;5061718;28;20455;-74
2022/09/27 11:53:00;;;;;;;0.40;0.23;;;11.00;99.90;;;;;;5065836;28;20485;-75
2022/09/27 11:55:39;;;;;;;0.40;0.30;;;11.30;99.90;;;;;;5063089;28;21025;-75
2022/09/27 11:58:21;;;;;;;0.40;0.20;;;11.80;99.90;;;;;;5060832;28;20487;-75
2022/09/27 12:01:05;;;;;;;0.50;0.30;;;12.10;99.90;;;;;;5062787;28;20937;-76
2022/09/27 12:03:56;;;;;;;0.90;0.20;;;12.40;99.90;;;;;;5053923;28;20804;-75
2022/09/27 12:06:32;;;;;;;0.40;0.30;;;12.70;99.90;;;;;;5043115;28;20492;-75
2022/09/27 12:09:05;;;;;;;0.50;0.30;;;12.70;99.90;;;;;;5049945;28;20572;-75
2022/09/27 12:11:41;;;;;;;0.90;0.23;;;12.50;99.90;;;;;;5049162;28;20496;-75
2022/09/27 12:14:15;;;;;;;1.50;0.30;;;12.20;99.90;;;;;;5049026;28;20515;-76
2022/09/27 12:16:44;;;;;;;0.40;0.30;;;12.20;99.90;;;;;;5047714;28;20552;-75
2022/09/27 12:19:18;;;;;;;0.40;0.20;;;12.30;99.90;;;;;;5045188;28;20882;-75
2022/09/27 12:21:45;;;;;;;0.40;0.20;;;12.30;99.90;;;;;;5048611;28;20499;-75
2022/09/27 12:24:21;;;;;;;0.60;0.27;;;12.20;99.90;;;;;;5060611;28;21165;-75
2022/09/27 12:26:54;;;;;;;0.40;0.27;;;12.30;99.90;;;;;;5057800;28;20514;-75
2022/09/27 12:29:26;;;;;;;0.60;0.30;;;12.30;99.90;;;;;;5061929;28;20903;-76
2022/09/27 12:32:13;;;;;;;0.40;0.20;;;12.30;99.90;;;;;;5062685;28;20483;-75
2022/09/27 12:34:46;;;;;;;0.40;0.30;;;12.20;99.90;;;;;;5065421;28;20997;-75
2022/09/27 12:37:19;;;;;;;0.50;0.40;;;12.20;99.90;;;;;;5062927;28;20830;-76
2022/09/27 12:39:52;;;;;;;0.40;0.30;;;12.30;99.90;;;;;;5061064;28;21011;-76
2022/09/27 12:42:24;;;;;;;0.33;0.20;;;12.30;99.90;;;;;;5067008;28;20773;-76
2022/09/27 12:44:53;;;;;;;0.93;0.30;;;12.40;99.90;;;;;;5064505;28;20979;-76
2022/09/27 12:47:50;;;;;;;0.57;0.20;;;12.50;99.90;;;;;;5060001;28;20548;-76
2022/09/27 12:50:29;;;;;;;1.00;0.30;;;12.50;99.90;;;;;;5066689;28;20479;-76
2022/09/27 12:53:03;;;;;;;0.60;0.30;;;12.50;99.90;;;;;;5063317;28;20795;-76
2022/09/27 12:55:59;;;;;;;0.67;0.30;;;12.70;99.90;;;;;;5062872;28;20929;-76
2022/09/27 12:59:09;;;;;;;0.40;0.30;;;12.70;99.90;;;;;;5057915;28;20524;-76
2022/09/27 13:02:00;;;;;;;0.40;0.20;;;12.90;99.90;;;;;;5053954;28;20946;-76
2022/09/27 13:05:00;;;;;;;0.60;0.40;;;12.90;99.90;;;;;;5062128;28;20999;-76
2022/09/27 13:07:42;;;;;;;0.70;0.43;;;12.80;99.90;;;;;;5055115;28;20467;-76
2022/09/27 13:10:31;;;;;;;0.40;0.30;;;12.80;99.90;;;;;;5064337;28;21162;-75
2022/09/27 13:13:00;;;;;;;0.40;0.33;;;12.90;99.90;;;;;;5062038;28;20489;-76
2022/09/27 13:15:32;;;;;;;0.80;0.30;;;13.00;99.90;;;;;;5065080;28;20507;-76
2022/09/27 13:18:02;;;;;;;0.50;0.40;;;13.20;99.90;;;;;;5065605;28;20456;-75